KIZA

Details ICAO KIZA
Name SANTA YNEZ
Region United States
Timezone America/Los_Angeles (UTC-7.0)
Plans Departing 8
Arriving 13
Stats Elevation 671 ft / 205 m (AMSL)
Location 34.606817° -120.075550°
Runways 1
Magnetic Variation 12.412° E
Sunrise 2018-05-20 12:55:31 UTC / 2018-05-20 05:55:31 Local
Sunset 2018-05-21 03:01:01 UTC / 2018-05-20 20:01:01 Local
Advertisement - Login to hide

Runways

ID Width Length Bearing (true) Bearing (mag) Surface Threshold Offset Overrun Length
08 75 ft / 23 m 2,798 ft / 853 m 98.28° 85.87° Asphalt 0 ft / 0 m 0 ft / 0 m
26 75 ft / 23 m 2,798 ft / 853 m 278.29° 265.88° Asphalt 0 ft / 0 m 0 ft / 0 m

Map

Weather


0- 5 10 15 20 25 30 35+ Temperature / ° C

Clouds and Precipitation
Forecast for 2018-05-21 06:00 UTC. Updated 34 minutes ago

Ground ~20,000 ft ~40,000 ft Winds

METAR

KIZA 210535Z AUTO 30005KT 10SM OVC015 11/08 A2995 RMK AO2

TAF

Not found

Frequencies

Recorded 118.07 MHz AWOS 3
Approach 124.15 MHz SANTA BARB APP/DEP
Unicom 122.80 MHz CTAF/UNICOM
Warning: Do not use this data for real-world aviation or navigation. No guarantee of current accuracy is given.